createdAt,value
2019-03-22T00:00:35.213Z,67.26
2019-03-22T00:03:04.719Z,67.96
2019-03-22T00:05:34.140Z,68.04
2019-03-22T00:08:03.833Z,68.16
2019-03-22T00:10:33.265Z,68.45
2019-03-22T00:13:02.710Z,68.18
2019-03-22T00:15:32.147Z,68.71
2019-03-22T00:18:01.590Z,68.69
2019-03-22T00:20:31.023Z,68.23
2019-03-22T00:23:00.455Z,68.05
2019-03-22T00:25:30.458Z,67.63
2019-03-22T00:27:59.894Z,67.71
2019-03-22T00:30:29.343Z,67.82
2019-03-22T00:32:58.782Z,67.78
2019-03-22T00:35:28.212Z,67.56
2019-03-22T00:37:57.644Z,67.92
2019-03-22T00:40:27.087Z,68.35
2019-03-22T00:42:56.886Z,68.77
2019-03-22T00:45:26.323Z,68.77
2019-03-22T00:47:55.759Z,69.29
2019-03-22T00:50:25.199Z,69.47
2019-03-22T00:52:54.632Z,69.52
2019-03-22T00:55:24.081Z,69.31
2019-03-22T00:57:53.514Z,69.35
2019-03-22T01:00:22.951Z,69.30
2019-03-22T01:02:52.397Z,69.06
2019-03-22T01:05:21.839Z,68.52
2019-03-22T01:07:51.343Z,68.88
2019-03-22T01:10:20.787Z,69.51
2019-03-22T01:12:50.213Z,70.29
2019-03-22T01:15:19.665Z,70.34
2019-03-22T01:17:49.099Z,70.40
2019-03-22T01:20:18.557Z,70.17
2019-03-22T01:22:47.979Z,70.07
2019-03-22T01:25:17.423Z,70.35
2019-03-22T01:27:46.853Z,70.43
2019-03-22T01:30:18.110Z,70.43
2019-03-22T01:32:47.544Z,70.64
2019-03-22T01:35:17.281Z,71.36
2019-03-22T01:37:46.719Z,71.63
2019-03-22T01:40:16.799Z,72.25
2019-03-22T01:42:46.240Z,72.08
2019-03-22T01:45:17.426Z,71.70
2019-03-22T01:47:46.866Z,71.92
2019-03-22T01:50:18.131Z,72.00
2019-03-22T01:52:47.636Z,72.20
2019-03-22T01:55:17.060Z,72.21
2019-03-22T01:57:52.916Z,72.46
2019-03-22T02:00:18.962Z,72.59
2019-03-22T02:02:48.379Z,72.52
2019-03-22T02:05:17.901Z,72.58
2019-03-22T02:07:47.320Z,72.43
2019-03-22T02:10:18.554Z,73.01
2019-03-22T02:12:47.977Z,72.93
2019-03-22T02:15:18.292Z,72.76
2019-03-22T02:17:47.795Z,72.33
2019-03-22T02:20:18.768Z,71.98
2019-03-22T02:22:48.208Z,71.72
2019-03-22T02:25:17.709Z,71.70
2019-03-22T02:27:47.454Z,71.65
2019-03-22T02:30:18.134Z,71.80
2019-03-22T02:32:47.642Z,71.78
2019-03-22T02:35:28.521Z,71.76
2019-03-22T02:37:48.231Z,72.04
2019-03-22T02:40:17.938Z,72.57
2019-03-22T02:42:47.374Z,72.48
2019-03-22T02:45:17.388Z,72.36
2019-03-22T02:47:46.845Z,72.15
2019-03-22T02:50:19.557Z,72.29
2019-03-22T02:52:47.570Z,72.19
2019-03-22T02:55:17.266Z,72.17
2019-03-22T02:57:46.813Z,72.35
2019-03-22T03:00:18.141Z,72.66
2019-03-22T03:02:47.600Z,73.02
2019-03-22T03:05:17.172Z,73.34
2019-03-22T03:07:46.656Z,73.05
2019-03-22T03:10:16.985Z,72.79
2019-03-22T03:12:46.514Z,72.59
2019-03-22T03:15:19.745Z,72.88
2019-03-22T03:17:49.470Z,73.37
2019-03-22T03:20:20.454Z,73.31
2019-03-22T03:22:49.904Z,73.30
2019-03-22T03:25:19.507Z,73.26
2019-03-22T03:27:49.026Z,73.26
2019-03-22T03:30:22.535Z,73.29
2019-03-22T03:32:51.987Z,73.53
2019-03-22T03:35:21.408Z,73.33
2019-03-22T03:37:50.869Z,73.34
2019-03-22T03:40:20.393Z,73.29
2019-03-22T03:42:49.806Z,73.43
2019-03-22T03:45:36.812Z,73.66
2019-03-22T03:48:11.117Z,73.30
2019-03-22T03:50:40.826Z,73.26
2019-03-22T03:53:10.343Z,73.54
2019-03-22T03:55:39.780Z,73.80
2019-03-22T03:58:09.304Z,73.93
2019-03-22T04:00:38.736Z,73.80
2019-03-22T04:03:08.188Z,73.27
2019-03-22T04:05:37.673Z,72.95
2019-03-22T04:08:07.111Z,72.72
2019-03-22T04:10:37.054Z,72.50
2019-03-22T04:13:06.500Z,72.40
2019-03-22T04:15:35.939Z,72.36
2019-03-22T04:18:05.450Z,72.36
2019-03-22T04:20:34.876Z,72.77
2019-03-22T04:23:04.328Z,73.22
2019-03-22T04:25:33.759Z,73.07
2019-03-22T04:28:03.201Z,73.03
2019-03-22T04:30:32.652Z,73.14
2019-03-22T04:33:02.156Z,73.86
2019-03-22T04:35:31.587Z,74.40
2019-03-22T04:38:01.025Z,74.42
2019-03-22T04:40:31.001Z,74.71
2019-03-22T04:43:00.501Z,74.66
2019-03-22T04:45:31.978Z,74.46
2019-03-22T04:48:11.599Z,74.26
2019-03-22T04:50:42.554Z,74.41
2019-03-22T04:53:16.771Z,74.53
2019-03-22T04:55:50.777Z,74.94
2019-03-22T04:58:22.467Z,74.82
2019-03-22T05:00:53.941Z,75.07
2019-03-22T05:03:25.537Z,75.48
2019-03-22T05:05:57.711Z,75.43
2019-03-22T05:08:29.355Z,75.07
2019-03-22T05:11:01.825Z,75.93
2019-03-22T05:13:33.018Z,75.82
2019-03-22T05:16:03.361Z,75.96
2019-03-22T05:18:34.417Z,76.07
2019-03-22T05:21:05.291Z,75.74
2019-03-22T05:23:34.876Z,75.18
2019-03-22T05:26:05.396Z,74.98
2019-03-22T05:28:35.279Z,75.23
2019-03-22T05:31:12.200Z,74.96
2019-03-22T05:33:41.701Z,75.48
2019-03-22T05:36:11.128Z,75.86
2019-03-22T05:38:40.601Z,75.67
2019-03-22T05:41:10.010Z,75.53
2019-03-22T05:43:39.453Z,75.40
2019-03-22T05:46:08.889Z,75.33
2019-03-22T05:48:38.339Z,75.03
2019-03-22T05:51:08.038Z,74.78
2019-03-22T05:53:37.501Z,74.71
2019-03-22T05:56:06.929Z,74.40
2019-03-22T05:58:36.382Z,74.06
2019-03-22T06:01:05.840Z,74.24
2019-03-22T06:03:35.268Z,74.01
2019-03-22T06:06:04.713Z,73.92
2019-03-22T06:08:34.151Z,73.76
2019-03-22T06:11:03.585Z,73.79
2019-03-22T06:13:33.017Z,74.17
2019-03-22T06:16:02.479Z,74.18
2019-03-22T06:18:31.924Z,73.92
2019-03-22T06:21:01.374Z,73.62
2019-03-22T06:23:30.805Z,73.51
2019-03-22T06:26:00.248Z,73.54
2019-03-22T06:28:30.027Z,73.40
2019-03-22T06:30:59.483Z,73.05
2019-03-22T06:33:28.911Z,72.85
2019-03-22T06:35:58.352Z,72.82
2019-03-22T06:38:27.792Z,72.40
2019-03-22T06:40:57.235Z,72.30
2019-03-22T06:43:26.673Z,71.94
2019-03-22T06:45:56.122Z,71.74
2019-03-22T06:48:25.561Z,71.49
2019-03-22T06:50:54.998Z,71.51
2019-03-22T06:53:24.432Z,71.10
2019-03-22T06:55:53.872Z,71.12
2019-03-22T06:58:24.332Z,71.34
2019-03-22T07:00:53.927Z,71.08
2019-03-22T07:03:23.359Z,70.69
2019-03-22T07:05:52.817Z,70.44
2019-03-22T07:08:22.254Z,70.22
2019-03-22T07:10:51.705Z,69.98
2019-03-22T07:13:21.457Z,69.84
2019-03-22T07:15:50.905Z,69.39
2019-03-22T07:18:20.681Z,69.44
2019-03-22T07:20:50.146Z,69.24
2019-03-22T07:23:19.591Z,69.27
2019-03-22T07:25:49.129Z,68.84
2019-03-22T07:28:18.609Z,68.56
2019-03-22T07:30:48.057Z,68.26
2019-03-22T07:33:17.504Z,68.11
2019-03-22T07:35:46.937Z,67.69
2019-03-22T07:38:16.628Z,67.03
2019-03-22T07:40:46.078Z,67.09
2019-03-22T07:43:15.565Z,66.83
2019-03-22T07:45:45.001Z,66.63
2019-03-22T07:48:14.433Z,66.86
2019-03-22T07:50:43.885Z,65.85
2019-03-22T07:53:13.323Z,66.35
2019-03-22T07:55:42.840Z,65.67
2019-03-22T07:58:12.270Z,65.50
2019-03-22T08:00:41.788Z,66.09
2019-03-22T08:03:11.234Z,66.23
2019-03-22T08:05:50.716Z,65.93
2019-03-22T08:08:11.835Z,65.74
2019-03-22T08:10:41.276Z,65.54
2019-03-22T08:13:10.780Z,65.39
2019-03-22T08:15:40.223Z,65.28
2019-03-22T08:18:09.661Z,65.08
2019-03-22T08:20:39.178Z,65.06
2019-03-22T08:23:22.930Z,64.25
2019-03-22T08:25:52.555Z,64.29
2019-03-22T08:28:21.984Z,64.11
2019-03-22T08:30:51.432Z,64.08
2019-03-22T08:33:20.936Z,63.87
2019-03-22T08:35:50.389Z,63.27
2019-03-22T08:38:19.845Z,63.19
2019-03-22T08:40:49.312Z,63.17
2019-03-22T08:43:18.740Z,62.90
2019-03-22T08:45:48.182Z,62.50
2019-03-22T08:48:17.613Z,62.55
2019-03-22T08:50:47.045Z,62.28
2019-03-22T08:53:16.536Z,62.09
2019-03-22T08:55:45.960Z,62.02
2019-03-22T08:58:18.294Z,61.83
2019-03-22T09:00:57.231Z,61.69
2019-03-22T09:03:17.892Z,61.69
2019-03-22T09:05:47.340Z,61.50
2019-03-22T09:08:16.790Z,61.25
2019-03-22T09:10:46.331Z,61.15
2019-03-22T09:13:15.788Z,61.04
2019-03-22T09:15:45.220Z,60.26
2019-03-22T09:18:15.651Z,60.01
2019-03-22T09:20:45.296Z,59.76
2019-03-22T09:23:14.755Z,59.69
2019-03-22T09:25:44.262Z,59.14
2019-03-22T09:28:13.710Z,59.33
2019-03-22T09:30:43.180Z,59.30
2019-03-22T09:33:13.457Z,59.08
2019-03-22T09:35:43.100Z,58.91
2019-03-22T09:38:13.546Z,58.99
2019-03-22T09:40:43.505Z,58.66
2019-03-22T09:43:12.894Z,57.98
2019-03-22T09:45:42.383Z,56.89
2019-03-22T09:48:11.787Z,56.57
2019-03-22T09:50:46.943Z,56.68
2019-03-22T09:53:16.446Z,56.94
2019-03-22T09:55:45.919Z,56.29
2019-03-22T09:58:17.217Z,54.94
2019-03-22T10:00:48.588Z,54.53
2019-03-22T10:03:17.877Z,54.61
2019-03-22T10:05:47.281Z,54.50
2019-03-22T10:08:16.733Z,54.52
2019-03-22T10:10:46.175Z,54.30
2019-03-22T10:13:15.673Z,54.20
2019-03-22T10:15:45.089Z,54.13
2019-03-22T10:18:14.552Z,51.84
2019-03-22T10:20:43.999Z,50.93
2019-03-22T10:23:13.498Z,49.82
2019-03-22T10:25:42.961Z,49.68
2019-03-22T10:28:12.399Z,50.15
2019-03-22T10:30:41.886Z,50.81
2019-03-22T10:33:22.169Z,49.87
2019-03-22T10:35:42.533Z,48.29
2019-03-22T10:38:16.509Z,49.08
2019-03-22T10:40:43.189Z,48.27
2019-03-22T10:43:12.652Z,47.99
2019-03-22T10:45:42.128Z,48.77
2019-03-22T10:48:11.598Z,48.23
2019-03-22T10:50:41.020Z,48.51
2019-03-22T10:53:10.562Z,46.09
2019-03-22T10:55:40.010Z,45.68
2019-03-22T10:58:20.310Z,45.38
2019-03-22T11:00:40.778Z,45.78
2019-03-22T11:03:10.252Z,46.12
2019-03-22T11:05:39.716Z,45.58
2019-03-22T11:08:09.435Z,45.48
2019-03-22T11:10:38.886Z,45.43
2019-03-22T11:13:08.340Z,44.78
2019-03-22T11:15:47.951Z,43.53
2019-03-22T11:18:09.284Z,42.23
2019-03-22T11:20:38.744Z,41.60
2019-03-22T11:23:08.203Z,41.49
2019-03-22T11:25:37.659Z,42.16
2019-03-22T11:28:07.105Z,41.95
2019-03-22T11:30:36.832Z,42.82
2019-03-22T11:33:06.687Z,41.32
2019-03-22T11:35:37.217Z,41.39
2019-03-22T11:38:06.849Z,41.05
2019-03-22T11:40:36.308Z,40.09
2019-03-22T11:43:08.801Z,38.51
2019-03-22T11:45:37.025Z,39.03
2019-03-22T11:48:06.536Z,38.95
2019-03-22T11:50:36.008Z,39.71
2019-03-22T11:53:05.906Z,39.12
2019-03-22T11:55:35.367Z,39.10
2019-03-22T11:58:04.888Z,39.30
2019-03-22T12:00:34.342Z,39.27
2019-03-22T12:03:04.055Z,39.62
2019-03-22T12:05:40.368Z,39.89
2019-03-22T12:08:04.816Z,39.90
2019-03-22T12:10:34.281Z,38.44
2019-03-22T12:13:03.725Z,39.29
2019-03-22T12:15:33.175Z,39.35
2019-03-22T12:18:02.623Z,38.63
2019-03-22T12:20:32.087Z,39.26
2019-03-22T12:23:01.549Z,38.91
2019-03-22T12:25:30.990Z,38.99
2019-03-22T12:28:00.439Z,38.29
2019-03-22T12:30:29.896Z,36.54
2019-03-22T12:32:59.363Z,36.35
2019-03-22T12:35:28.822Z,35.69
2019-03-22T12:37:58.253Z,35.91
2019-03-22T12:40:27.715Z,34.87
2019-03-22T12:42:57.156Z,35.15
2019-03-22T12:45:29.781Z,34.95
2019-03-22T12:47:59.247Z,34.32
2019-03-22T12:50:28.783Z,34.08
2019-03-22T12:52:58.223Z,34.17
2019-03-22T12:55:27.679Z,33.67
2019-03-22T12:57:59.365Z,33.50
2019-03-22T13:00:28.641Z,31.70
2019-03-22T13:02:58.378Z,31.86
2019-03-22T13:05:27.837Z,30.98
2019-03-22T13:07:57.258Z,30.83
2019-03-22T13:10:30.150Z,30.55
2019-03-22T13:12:59.608Z,30.71
2019-03-22T13:15:29.059Z,31.62
2019-03-22T13:17:58.497Z,31.31
2019-03-22T13:20:28.295Z,30.26
2019-03-22T13:22:57.735Z,30.07
2019-03-22T13:25:27.192Z,30.91
2019-03-22T13:27:56.636Z,30.00
2019-03-22T13:30:37.305Z,29.42
2019-03-22T13:33:07.093Z,30.14
2019-03-22T13:35:36.554Z,30.33
2019-03-22T13:38:06.063Z,30.73
2019-03-22T13:40:35.528Z,30.26
2019-03-22T13:43:04.977Z,30.08
2019-03-22T13:45:34.415Z,29.88
2019-03-22T13:48:03.860Z,29.98
2019-03-22T13:50:33.295Z,29.63
2019-03-22T13:53:02.755Z,29.79
2019-03-22T13:55:32.178Z,28.98
2019-03-22T13:58:01.630Z,28.95
2019-03-22T14:00:31.062Z,29.28
2019-03-22T14:03:02.956Z,28.87
2019-03-22T14:05:31.674Z,29.56
2019-03-22T14:08:01.155Z,28.50
2019-03-22T14:10:33.671Z,29.23
2019-03-22T14:13:05.827Z,29.71
2019-03-22T14:15:35.343Z,29.52
2019-03-22T14:18:05.261Z,28.92
2019-03-22T14:20:34.693Z,29.13
2019-03-22T14:23:05.041Z,29.70
2019-03-22T14:25:34.464Z,29.80
2019-03-22T14:28:03.916Z,31.04
2019-03-22T14:30:33.361Z,30.86
2019-03-22T14:33:12.585Z,31.70
2019-03-22T14:35:33.972Z,31.89
2019-03-22T14:38:03.423Z,31.96
2019-03-22T14:40:32.870Z,31.83
2019-03-22T14:43:02.335Z,31.95
2019-03-22T14:45:31.790Z,31.60
2019-03-22T14:48:01.243Z,31.49
2019-03-22T14:50:30.678Z,32.34
2019-03-22T14:53:00.146Z,32.70
2019-03-22T14:55:29.575Z,31.92
2019-03-22T14:57:59.019Z,31.91
2019-03-22T15:00:28.460Z,32.77
2019-03-22T15:02:57.906Z,32.95
2019-03-22T15:05:27.645Z,32.83
2019-03-22T15:07:57.360Z,32.56
2019-03-22T15:10:26.804Z,32.77
2019-03-22T15:12:56.251Z,33.01
2019-03-22T15:15:27.334Z,33.54
2019-03-22T15:18:01.137Z,33.60
2019-03-22T15:20:39.107Z,33.76
2019-03-22T15:23:19.283Z,33.30
2019-03-22T15:26:05.357Z,33.15
2019-03-22T15:28:52.720Z,33.64
2019-03-22T15:31:21.899Z,33.66
2019-03-22T15:33:58.428Z,33.43
2019-03-22T15:36:41.181Z,33.48
2019-03-22T15:39:21.791Z,33.76
2019-03-22T15:41:51.321Z,32.58
2019-03-22T15:44:20.920Z,32.07
2019-03-22T15:46:50.395Z,31.91
2019-03-22T15:49:19.850Z,31.76
2019-03-22T15:51:49.288Z,31.07
2019-03-22T15:54:18.737Z,30.78
2019-03-22T15:56:48.172Z,30.04
2019-03-22T15:59:17.623Z,27.90
2019-03-22T16:01:47.056Z,27.86
2019-03-22T16:04:18.619Z,27.80
2019-03-22T16:06:47.822Z,27.26
2019-03-22T16:09:17.282Z,26.70
2019-03-22T16:11:46.718Z,26.96
2019-03-22T16:14:16.176Z,28.45
2019-03-22T16:16:45.622Z,28.12
2019-03-22T16:19:15.077Z,28.29
2019-03-22T16:21:44.526Z,29.50
2019-03-22T16:24:14.310Z,30.38
2019-03-22T16:26:43.750Z,30.02
2019-03-22T16:29:13.200Z,30.96
2019-03-22T16:31:42.649Z,31.10
2019-03-22T16:34:12.106Z,30.57
2019-03-22T16:36:41.618Z,30.78
2019-03-22T16:39:11.055Z,30.81
2019-03-22T16:41:40.504Z,31.90
2019-03-22T16:44:09.957Z,31.77
2019-03-22T16:46:39.508Z,32.04
2019-03-22T16:49:08.906Z,32.72
2019-03-22T16:51:38.347Z,33.54
2019-03-22T16:54:07.800Z,33.23
2019-03-22T16:56:37.246Z,34.25
2019-03-22T16:59:06.686Z,33.98
2019-03-22T17:01:36.958Z,35.19
2019-03-22T17:04:06.423Z,35.89
2019-03-22T17:06:35.863Z,35.86
2019-03-22T17:09:07.058Z,36.54
2019-03-22T17:11:36.494Z,36.78
2019-03-22T17:14:05.943Z,36.66
2019-03-22T17:16:35.393Z,36.96
2019-03-22T17:19:04.858Z,37.86
2019-03-22T17:21:34.293Z,37.49
2019-03-22T17:24:03.783Z,38.21
2019-03-22T17:26:33.220Z,38.90
2019-03-22T17:29:02.678Z,38.98
2019-03-22T17:31:32.111Z,39.77
2019-03-22T17:34:01.563Z,39.76
2019-03-22T17:36:31.022Z,39.96
2019-03-22T17:39:00.462Z,40.44
2019-03-22T17:41:29.910Z,40.97
2019-03-22T17:43:59.363Z,41.29
2019-03-22T17:46:28.808Z,41.51
2019-03-22T17:48:58.260Z,41.92
2019-03-22T17:51:27.692Z,42.13
2019-03-22T17:53:57.152Z,42.62
2019-03-22T17:56:26.619Z,42.97
2019-03-22T17:58:56.064Z,43.11
2019-03-22T18:01:25.508Z,43.05
2019-03-22T18:03:55.265Z,44.37
2019-03-22T18:06:25.054Z,44.48
2019-03-22T18:08:54.554Z,45.13
2019-03-22T18:11:24.001Z,44.85
2019-03-22T18:13:53.639Z,45.09
2019-03-22T18:16:23.059Z,45.47
2019-03-22T18:18:52.874Z,46.23
2019-03-22T18:21:22.367Z,45.97
2019-03-22T18:23:51.906Z,46.53
2019-03-22T18:26:21.339Z,46.53
2019-03-22T18:28:50.783Z,46.95
2019-03-22T18:31:20.256Z,47.36
2019-03-22T18:33:49.697Z,47.80
2019-03-22T18:36:19.158Z,47.97
2019-03-22T18:38:48.601Z,47.73
2019-03-22T18:41:18.077Z,48.51
2019-03-22T18:43:47.491Z,48.57
2019-03-22T18:46:16.944Z,49.67
2019-03-22T18:48:46.389Z,49.90
2019-03-22T18:51:15.837Z,50.22
2019-03-22T18:53:45.286Z,49.96
2019-03-22T18:56:14.751Z,49.92
2019-03-22T18:58:44.194Z,50.32
2019-03-22T19:01:13.657Z,50.65
2019-03-22T19:03:43.100Z,50.83
2019-03-22T19:06:12.543Z,51.00
2019-03-22T19:08:41.991Z,51.31
2019-03-22T19:11:11.452Z,51.31
2019-03-22T19:13:40.894Z,51.69
2019-03-22T19:16:10.344Z,52.07
2019-03-22T19:18:39.780Z,51.89
2019-03-22T19:21:09.228Z,52.21
2019-03-22T19:23:38.668Z,52.85
2019-03-22T19:26:08.128Z,53.09
2019-03-22T19:28:37.567Z,53.48
2019-03-22T19:31:07.017Z,53.76
2019-03-22T19:33:36.452Z,54.07
2019-03-22T19:36:05.904Z,54.47
2019-03-22T19:38:35.341Z,54.95
2019-03-22T19:41:04.795Z,55.01
2019-03-22T19:43:34.532Z,55.37
2019-03-22T19:46:04.056Z,55.47
2019-03-22T19:48:33.494Z,55.70
2019-03-22T19:51:02.940Z,55.61
2019-03-22T19:53:32.396Z,55.85
2019-03-22T19:56:01.834Z,56.04
2019-03-22T19:58:31.276Z,56.32
2019-03-22T20:01:00.734Z,55.98
2019-03-22T20:03:30.177Z,56.03
2019-03-22T20:05:59.624Z,55.60
2019-03-22T20:08:29.074Z,55.68
2019-03-22T20:10:58.517Z,55.67
2019-03-22T20:13:27.958Z,55.63
2019-03-22T20:15:57.420Z,55.75
2019-03-22T20:18:26.848Z,56.00
2019-03-22T20:20:56.622Z,56.19
2019-03-22T20:23:26.060Z,56.40
2019-03-22T20:25:55.519Z,56.45
2019-03-22T20:28:24.969Z,56.39
2019-03-22T20:30:54.425Z,56.81
2019-03-22T20:33:23.866Z,56.94
2019-03-22T20:35:53.387Z,57.26
2019-03-22T20:38:22.826Z,57.94
2019-03-22T20:40:52.284Z,57.96
2019-03-22T20:43:21.717Z,57.71
2019-03-22T20:45:51.168Z,57.84
2019-03-22T20:48:20.883Z,58.04
2019-03-22T20:50:50.348Z,57.98
2019-03-22T20:53:20.112Z,58.10
2019-03-22T20:55:49.551Z,58.36
2019-03-22T20:58:19.000Z,58.63
2019-03-22T21:00:48.440Z,58.95
2019-03-22T21:03:17.884Z,58.93
2019-03-22T21:05:47.321Z,58.87
2019-03-22T21:08:16.768Z,59.40
2019-03-22T21:10:46.201Z,60.00
2019-03-22T21:13:15.654Z,60.66
2019-03-22T21:15:45.090Z,61.19
2019-03-22T21:18:14.533Z,61.56
2019-03-22T21:20:43.972Z,61.65
2019-03-22T21:23:13.420Z,62.21
2019-03-22T21:25:42.866Z,62.36
2019-03-22T21:28:12.314Z,62.42
2019-03-22T21:30:41.748Z,62.93
2019-03-22T21:33:11.191Z,63.26
2019-03-22T21:35:40.634Z,63.38
2019-03-22T21:38:11.156Z,63.40
2019-03-22T21:40:40.811Z,63.22
2019-03-22T21:43:10.260Z,63.49
2019-03-22T21:45:39.700Z,63.74
2019-03-22T21:48:09.144Z,64.15
2019-03-22T21:50:38.581Z,64.64
2019-03-22T21:53:08.033Z,64.28
2019-03-22T21:55:37.469Z,64.90
2019-03-22T21:58:06.915Z,64.90
2019-03-22T22:00:36.356Z,64.76
2019-03-22T22:03:05.947Z,65.10
2019-03-22T22:05:35.385Z,65.19
2019-03-22T22:08:05.095Z,65.61
2019-03-22T22:10:34.529Z,65.37
2019-03-22T22:13:03.974Z,65.59
2019-03-22T22:15:33.407Z,65.70
2019-03-22T22:18:02.852Z,65.53
2019-03-22T22:20:32.303Z,65.71
2019-03-22T22:23:01.748Z,65.77
2019-03-22T22:25:31.183Z,66.47
2019-03-22T22:28:00.634Z,66.71
2019-03-22T22:30:30.069Z,67.10
2019-03-22T22:32:59.525Z,67.02
2019-03-22T22:35:28.960Z,67.61
2019-03-22T22:37:58.394Z,68.18
2019-03-22T22:40:27.902Z,68.25
2019-03-22T22:42:57.339Z,68.26
2019-03-22T22:45:27.077Z,68.26
2019-03-22T22:47:56.520Z,68.56
2019-03-22T22:50:25.961Z,68.69
2019-03-22T22:52:55.418Z,68.56
2019-03-22T22:55:24.927Z,68.11
2019-03-22T22:57:54.404Z,68.34
2019-03-22T23:00:25.537Z,68.65
2019-03-22T23:02:55.149Z,69.06
2019-03-22T23:05:24.592Z,69.02
2019-03-22T23:07:54.033Z,68.90
2019-03-22T23:10:23.486Z,68.97
2019-03-22T23:12:52.925Z,69.04
2019-03-22T23:15:22.369Z,68.79
2019-03-22T23:17:51.804Z,68.63
2019-03-22T23:20:21.236Z,69.05
2019-03-22T23:22:50.666Z,69.18
2019-03-22T23:25:20.108Z,69.25
2019-03-22T23:27:49.823Z,69.00
2019-03-22T23:30:19.271Z,69.53
2019-03-22T23:32:48.715Z,69.78
2019-03-22T23:35:18.156Z,70.04
2019-03-22T23:37:47.597Z,70.26
2019-03-22T23:40:17.113Z,70.44
2019-03-22T23:42:46.552Z,70.25
2019-03-22T23:45:15.991Z,70.94
2019-03-22T23:47:45.427Z,70.97
2019-03-22T23:50:15.583Z,70.85
2019-03-22T23:52:45.018Z,70.90
2019-03-22T23:55:14.478Z,71.02
2019-03-22T23:57:43.904Z,71.32
